Terminal Aerodrome Forecast
Issued by NWS Jacksonville, FL

Home | Current Version | Previous Version | Text Only | Print | Product List | Glossary On
Versions: 1 2 3 4 5 6 7 8 9 10 11 12 13 14 15
000
FTUS42 KJAX 120528
TAFSSI
TAF
KSSI 120528Z 1206/1306 18008KT P6SM SKC
     FM120900 23005KT P6SM SCT007 BKN020
     FM121100 22004KT 4SM BR BKN007 BKN015
     FM121400 23008KT P6SM BKN015 BKN250
     FM121600 25010G18KT P6SM SCT040 BKN250
     FM130000 27005KT P6SM SCT040 BKN250=

USA.gov is the U.S. government's official web portal to all federal, state and local government web resources and services.